sensor_id;sensor_type;location;lat;lon;timestamp;pressure;altitude;pressure_sealevel;temperature;humidity
73106;BME280;61559;50.476;15.588;2022-12-18T00:00:55;98957.30;;;-4.19;80.39
73106;BME280;61559;50.476;15.588;2022-12-18T00:03:44;98960.83;;;-4.15;80.41
73106;BME280;61559;50.476;15.588;2022-12-18T00:06:17;98959.59;;;-4.13;80.57
73106;BME280;61559;50.476;15.588;2022-12-18T00:08:48;98964.05;;;-4.11;80.30
73106;BME280;61559;50.476;15.588;2022-12-18T00:11:22;98965.05;;;-4.11;80.22
73106;BME280;61559;50.476;15.588;2022-12-18T00:13:55;98973.11;;;-4.08;80.20
73106;BME280;61559;50.476;15.588;2022-12-18T00:16:28;98976.99;;;-4.07;80.33
73106;BME280;61559;50.476;15.588;2022-12-18T00:19:03;98978.60;;;-4.05;80.33
73106;BME280;61559;50.476;15.588;2022-12-18T00:21:35;98982.44;;;-4.02;80.20
73106;BME280;61559;50.476;15.588;2022-12-18T00:24:07;98977.76;;;-3.98;80.40
73106;BME280;61559;50.476;15.588;2022-12-18T00:26:39;98983.71;;;-3.95;80.53
73106;BME280;61559;50.476;15.588;2022-12-18T00:29:13;98991.57;;;-3.95;80.47
73106;BME280;61559;50.476;15.588;2022-12-18T00:31:45;98996.79;;;-3.95;80.54
73106;BME280;61559;50.476;15.588;2022-12-18T00:34:16;98999.14;;;-3.97;80.46
73106;BME280;61559;50.476;15.588;2022-12-18T00:36:48;98996.85;;;-3.98;80.43
73106;BME280;61559;50.476;15.588;2022-12-18T00:39:19;98998.49;;;-3.96;80.46
73106;BME280;61559;50.476;15.588;2022-12-18T00:41:50;99003.79;;;-3.93;80.52
73106;BME280;61559;50.476;15.588;2022-12-18T00:44:39;99005.70;;;-3.92;80.58
73106;BME280;61559;50.476;15.588;2022-12-18T00:47:10;99003.69;;;-3.92;80.71
73106;BME280;61559;50.476;15.588;2022-12-18T00:49:41;99002.45;;;-3.95;80.73
73106;BME280;61559;50.476;15.588;2022-12-18T00:52:13;99001.66;;;-3.96;80.80
73106;BME280;61559;50.476;15.588;2022-12-18T00:54:44;99004.34;;;-3.96;80.84
73106;BME280;61559;50.476;15.588;2022-12-18T00:57:15;99009.70;;;-3.94;80.86
73106;BME280;61559;50.476;15.588;2022-12-18T00:59:48;99014.88;;;-3.92;80.85
73106;BME280;61559;50.476;15.588;2022-12-18T01:02:20;99013.59;;;-3.90;80.86
73106;BME280;61559;50.476;15.588;2022-12-18T01:04:51;99010.83;;;-3.90;80.74
73106;BME280;61559;50.476;15.588;2022-12-18T01:07:22;99012.98;;;-3.86;80.85
73106;BME280;61559;50.476;15.588;2022-12-18T01:09:53;99016.55;;;-3.85;80.88
73106;BME280;61559;50.476;15.588;2022-12-18T01:12:25;99018.52;;;-3.84;80.89
73106;BME280;61559;50.476;15.588;2022-12-18T01:14:55;99018.55;;;-3.85;80.77
73106;BME280;61559;50.476;15.588;2022-12-18T01:17:27;99021.77;;;-3.85;80.76
73106;BME280;61559;50.476;15.588;2022-12-18T01:19:57;99022.55;;;-3.84;80.85
73106;BME280;61559;50.476;15.588;2022-12-18T01:22:28;99020.95;;;-3.85;80.71
73106;BME280;61559;50.476;15.588;2022-12-18T01:25:00;99020.73;;;-3.86;80.74
73106;BME280;61559;50.476;15.588;2022-12-18T01:27:32;99024.74;;;-3.86;80.71
73106;BME280;61559;50.476;15.588;2022-12-18T01:30:04;99027.42;;;-3.84;80.84
73106;BME280;61559;50.476;15.588;2022-12-18T01:32:35;99034.02;;;-3.83;80.91
73106;BME280;61559;50.476;15.588;2022-12-18T01:35:08;99035.80;;;-3.84;80.96
73106;BME280;61559;50.476;15.588;2022-12-18T01:37:39;99043.36;;;-3.86;80.80
73106;BME280;61559;50.476;15.588;2022-12-18T01:40:11;99044.28;;;-3.90;80.93
73106;BME280;61559;50.476;15.588;2022-12-18T01:42:42;99044.10;;;-3.92;81.16
73106;BME280;61559;50.476;15.588;2022-12-18T01:45:28;99044.50;;;-3.94;81.03
73106;BME280;61559;50.476;15.588;2022-12-18T01:48:00;99049.92;;;-3.97;81.23
73106;BME280;61559;50.476;15.588;2022-12-18T01:50:35;99042.96;;;-4.00;81.06
73106;BME280;61559;50.476;15.588;2022-12-18T01:53:10;99046.74;;;-4.01;81.09
73106;BME280;61559;50.476;15.588;2022-12-18T01:55:45;99052.36;;;-4.06;81.28
73106;BME280;61559;50.476;15.588;2022-12-18T01:58:18;99057.73;;;-4.15;81.51
73106;BME280;61559;50.476;15.588;2022-12-18T02:00:50;99060.29;;;-4.24;81.46
73106;BME280;61559;50.476;15.588;2022-12-18T02:03:21;99065.89;;;-4.31;81.78
73106;BME280;61559;50.476;15.588;2022-12-18T02:06:01;99074.98;;;-4.33;81.75
73106;BME280;61559;50.476;15.588;2022-12-18T02:08:40;99082.64;;;-4.35;81.76
73106;BME280;61559;50.476;15.588;2022-12-18T02:11:19;99082.58;;;-4.39;81.86
73106;BME280;61559;50.476;15.588;2022-12-18T02:13:58;99074.70;;;-4.40;81.95
73106;BME280;61559;50.476;15.588;2022-12-18T02:16:42;99072.27;;;-4.42;81.94
73106;BME280;61559;50.476;15.588;2022-12-18T02:19:50;99071.13;;;-4.44;82.04
73106;BME280;61559;50.476;15.588;2022-12-18T02:22:39;99072.84;;;-4.46;82.28
73106;BME280;61559;50.476;15.588;2022-12-18T02:25:24;99072.44;;;-4.47;82.18
73106;BME280;61559;50.476;15.588;2022-12-18T02:27:58;99073.47;;;-4.46;82.41
73106;BME280;61559;50.476;15.588;2022-12-18T02:30:32;99079.77;;;-4.46;82.28
73106;BME280;61559;50.476;15.588;2022-12-18T02:33:06;99075.92;;;-4.47;82.28
73106;BME280;61559;50.476;15.588;2022-12-18T02:35:40;99074.19;;;-4.49;82.33
73106;BME280;61559;50.476;15.588;2022-12-18T02:38:13;99084.08;;;-4.52;82.36
73106;BME280;61559;50.476;15.588;2022-12-18T02:40:45;99097.30;;;-4.55;82.59
73106;BME280;61559;50.476;15.588;2022-12-18T02:43:17;99100.16;;;-4.58;82.58
73106;BME280;61559;50.476;15.588;2022-12-18T02:45:55;99102.05;;;-4.60;82.72
73106;BME280;61559;50.476;15.588;2022-12-18T02:48:32;99098.43;;;-4.62;82.76
73106;BME280;61559;50.476;15.588;2022-12-18T02:51:08;99092.70;;;-4.62;82.67
73106;BME280;61559;50.476;15.588;2022-12-18T02:53:48;99088.28;;;-4.58;82.73
73106;BME280;61559;50.476;15.588;2022-12-18T02:56:26;99086.67;;;-4.57;82.69
73106;BME280;61559;50.476;15.588;2022-12-18T02:59:03;99087.77;;;-4.58;82.59
73106;BME280;61559;50.476;15.588;2022-12-18T03:01:42;99090.05;;;-4.56;82.52
73106;BME280;61559;50.476;15.588;2022-12-18T03:04:19;99096.17;;;-4.55;82.83
73106;BME280;61559;50.476;15.588;2022-12-18T03:06:55;99101.68;;;-4.57;82.72
73106;BME280;61559;50.476;15.588;2022-12-18T03:09:31;99102.09;;;-4.58;82.57
73106;BME280;61559;50.476;15.588;2022-12-18T03:12:06;99106.05;;;-4.59;82.77
73106;BME280;61559;50.476;15.588;2022-12-18T03:14:58;99113.92;;;-4.63;82.54
73106;BME280;61559;50.476;15.588;2022-12-18T03:17:33;99117.66;;;-4.66;82.59
73106;BME280;61559;50.476;15.588;2022-12-18T03:20:08;99120.48;;;-4.66;82.74
73106;BME280;61559;50.476;15.588;2022-12-18T03:22:42;99124.84;;;-4.68;82.78
73106;BME280;61559;50.476;15.588;2022-12-18T03:25:15;99126.85;;;-4.69;82.88
73106;BME280;61559;50.476;15.588;2022-12-18T03:27:48;99128.90;;;-4.70;82.95
73106;BME280;61559;50.476;15.588;2022-12-18T03:30:21;99129.36;;;-4.68;82.82
73106;BME280;61559;50.476;15.588;2022-12-18T03:32:56;99126.97;;;-4.64;82.81
73106;BME280;61559;50.476;15.588;2022-12-18T03:35:33;99130.41;;;-4.62;82.82
73106;BME280;61559;50.476;15.588;2022-12-18T03:38:05;99127.48;;;-4.61;82.55
73106;BME280;61559;50.476;15.588;2022-12-18T03:40:45;99127.96;;;-4.58;82.70
73106;BME280;61559;50.476;15.588;2022-12-18T03:43:25;99129.81;;;-4.53;82.70
73106;BME280;61559;50.476;15.588;2022-12-18T03:46:05;99124.92;;;-4.50;82.57
73106;BME280;61559;50.476;15.588;2022-12-18T03:48:41;99121.87;;;-4.50;82.57
73106;BME280;61559;50.476;15.588;2022-12-18T03:51:20;99127.14;;;-4.49;82.45
73106;BME280;61559;50.476;15.588;2022-12-18T03:53:57;99128.64;;;-4.47;82.39
73106;BME280;61559;50.476;15.588;2022-12-18T03:56:31;99126.02;;;-4.49;82.33
73106;BME280;61559;50.476;15.588;2022-12-18T03:59:04;99124.48;;;-4.51;82.14
73106;BME280;61559;50.476;15.588;2022-12-18T04:01:38;99121.10;;;-4.52;82.20
73106;BME280;61559;50.476;15.588;2022-12-18T04:04:12;99120.08;;;-4.53;82.14
73106;BME280;61559;50.476;15.588;2022-12-18T04:06:46;99121.02;;;-4.53;82.27
73106;BME280;61559;50.476;15.588;2022-12-18T04:09:19;99124.36;;;-4.51;82.25
73106;BME280;61559;50.476;15.588;2022-12-18T04:11:52;99129.41;;;-4.50;82.20
73106;BME280;61559;50.476;15.588;2022-12-18T04:14:23;99134.88;;;-4.49;82.33
73106;BME280;61559;50.476;15.588;2022-12-18T04:16:54;99142.94;;;-4.48;82.28
73106;BME280;61559;50.476;15.588;2022-12-18T04:19:25;99143.33;;;-4.48;82.19
73106;BME280;61559;50.476;15.588;2022-12-18T04:21:57;99144.39;;;-4.47;82.07
73106;BME280;61559;50.476;15.588;2022-12-18T04:24:28;99148.98;;;-4.48;82.05
73106;BME280;61559;50.476;15.588;2022-12-18T04:26:59;99152.89;;;-4.50;82.04
73106;BME280;61559;50.476;15.588;2022-12-18T04:29:30;99149.73;;;-4.53;81.95
73106;BME280;61559;50.476;15.588;2022-12-18T04:32:01;99148.30;;;-4.55;82.11
73106;BME280;61559;50.476;15.588;2022-12-18T04:34:33;99151.72;;;-4.57;82.04
73106;BME280;61559;50.476;15.588;2022-12-18T04:37:03;99162.11;;;-4.60;81.88
73106;BME280;61559;50.476;15.588;2022-12-18T04:39:35;99169.77;;;-4.67;82.20
73106;BME280;61559;50.476;15.588;2022-12-18T04:42:06;99168.38;;;-4.72;82.30
73106;BME280;61559;50.476;15.588;2022-12-18T04:44:37;99173.58;;;-4.75;82.21
73106;BME280;61559;50.476;15.588;2022-12-18T04:47:08;99176.52;;;-4.74;82.28
73106;BME280;61559;50.476;15.588;2022-12-18T04:49:39;99185.34;;;-4.79;82.28
73106;BME280;61559;50.476;15.588;2022-12-18T04:52:10;99195.30;;;-4.85;82.51
73106;BME280;61559;50.476;15.588;2022-12-18T04:54:41;99195.23;;;-4.89;82.42
73106;BME280;61559;50.476;15.588;2022-12-18T04:57:12;99189.47;;;-4.92;82.59
73106;BME280;61559;50.476;15.588;2022-12-18T04:59:43;99189.34;;;-4.92;82.61
73106;BME280;61559;50.476;15.588;2022-12-18T05:02:14;99191.10;;;-4.91;82.64
73106;BME280;61559;50.476;15.588;2022-12-18T05:04:46;99188.09;;;-4.88;82.48
73106;BME280;61559;50.476;15.588;2022-12-18T05:07:17;99189.30;;;-4.84;82.56
73106;BME280;61559;50.476;15.588;2022-12-18T05:09:48;99197.45;;;-4.82;82.43
73106;BME280;61559;50.476;15.588;2022-12-18T05:12:19;99203.52;;;-4.82;82.26
73106;BME280;61559;50.476;15.588;2022-12-18T05:14:50;99203.80;;;-4.83;82.41
73106;BME280;61559;50.476;15.588;2022-12-18T05:17:21;99207.45;;;-4.85;82.45
73106;BME280;61559;50.476;15.588;2022-12-18T05:19:52;99213.61;;;-4.84;82.30
73106;BME280;61559;50.476;15.588;2022-12-18T05:22:23;99217.61;;;-4.84;82.40
73106;BME280;61559;50.476;15.588;2022-12-18T05:24:53;99217.04;;;-4.87;82.33
73106;BME280;61559;50.476;15.588;2022-12-18T05:27:24;99220.44;;;-4.87;82.37
73106;BME280;61559;50.476;15.588;2022-12-18T05:29:55;99226.11;;;-4.84;82.50
73106;BME280;61559;50.476;15.588;2022-12-18T05:32:27;99228.21;;;-4.83;82.17
73106;BME280;61559;50.476;15.588;2022-12-18T05:34:58;99227.14;;;-4.84;82.19
73106;BME280;61559;50.476;15.588;2022-12-18T05:37:29;99233.25;;;-4.80;82.34
73106;BME280;61559;50.476;15.588;2022-12-18T05:40:00;99235.89;;;-4.78;82.23
73106;BME280;61559;50.476;15.588;2022-12-18T05:42:31;99242.09;;;-4.75;82.20
73106;BME280;61559;50.476;15.588;2022-12-18T05:45:03;99243.33;;;-4.71;81.87
73106;BME280;61559;50.476;15.588;2022-12-18T05:47:34;99247.66;;;-4.71;81.83
73106;BME280;61559;50.476;15.588;2022-12-18T05:50:07;99253.68;;;-4.69;81.61
73106;BME280;61559;50.476;15.588;2022-12-18T05:52:38;99262.64;;;-4.68;81.19
73106;BME280;61559;50.476;15.588;2022-12-18T05:55:10;99261.76;;;-4.70;80.90
73106;BME280;61559;50.476;15.588;2022-12-18T05:57:41;99263.80;;;-4.76;80.52
73106;BME280;61559;50.476;15.588;2022-12-18T06:00:14;99266.37;;;-4.81;80.46
73106;BME280;61559;50.476;15.588;2022-12-18T06:02:49;99268.52;;;-4.86;80.45
73106;BME280;61559;50.476;15.588;2022-12-18T06:05:20;99270.77;;;-4.89;80.56
73106;BME280;61559;50.476;15.588;2022-12-18T06:07:51;99276.40;;;-4.92;80.21
73106;BME280;61559;50.476;15.588;2022-12-18T06:10:22;99281.27;;;-4.93;80.28
73106;BME280;61559;50.476;15.588;2022-12-18T06:12:53;99278.14;;;-4.96;80.27
73106;BME280;61559;50.476;15.588;2022-12-18T06:15:24;99280.29;;;-4.99;80.26
73106;BME280;61559;50.476;15.588;2022-12-18T06:17:55;99290.30;;;-5.00;80.22
73106;BME280;61559;50.476;15.588;2022-12-18T06:20:26;99284.02;;;-4.99;80.16
73106;BME280;61559;50.476;15.588;2022-12-18T06:23:02;99280.13;;;-4.99;80.21
73106;BME280;61559;50.476;15.588;2022-12-18T06:25:33;99278.66;;;-5.02;79.90
73106;BME280;61559;50.476;15.588;2022-12-18T06:28:05;99285.27;;;-5.06;79.77
73106;BME280;61559;50.476;15.588;2022-12-18T06:30:36;99288.41;;;-5.07;80.26
73106;BME280;61559;50.476;15.588;2022-12-18T06:33:07;99293.97;;;-5.07;79.90
73106;BME280;61559;50.476;15.588;2022-12-18T06:35:38;99296.45;;;-5.09;79.86
73106;BME280;61559;50.476;15.588;2022-12-18T06:38:09;99293.22;;;-5.08;79.96
73106;BME280;61559;50.476;15.588;2022-12-18T06:40:40;99290.08;;;-5.07;80.06
73106;BME280;61559;50.476;15.588;2022-12-18T06:43:11;99292.20;;;-5.07;79.91
73106;BME280;61559;50.476;15.588;2022-12-18T06:45:42;99295.48;;;-5.07;79.87
73106;BME280;61559;50.476;15.588;2022-12-18T06:48:13;99296.80;;;-5.07;79.76
73106;BME280;61559;50.476;15.588;2022-12-18T06:50:45;99300.19;;;-5.08;79.74
73106;BME280;61559;50.476;15.588;2022-12-18T06:53:16;99298.59;;;-5.08;79.93
73106;BME280;61559;50.476;15.588;2022-12-18T06:55:47;99301.48;;;-5.07;79.74
73106;BME280;61559;50.476;15.588;2022-12-18T06:58:18;99306.02;;;-5.07;79.90
73106;BME280;61559;50.476;15.588;2022-12-18T07:00:49;99310.27;;;-5.08;79.83
73106;BME280;61559;50.476;15.588;2022-12-18T07:03:19;99315.41;;;-5.07;79.88
73106;BME280;61559;50.476;15.588;2022-12-18T07:05:50;99323.52;;;-5.08;79.95
73106;BME280;61559;50.476;15.588;2022-12-18T07:08:21;99325.91;;;-5.10;79.74
73106;BME280;61559;50.476;15.588;2022-12-18T07:10:52;99329.11;;;-5.12;79.77
73106;BME280;61559;50.476;15.588;2022-12-18T07:13:25;99333.33;;;-5.14;79.83
73106;BME280;61559;50.476;15.588;2022-12-18T07:16:02;99333.27;;;-5.15;79.82
73106;BME280;61559;50.476;15.588;2022-12-18T07:18:37;99335.67;;;-5.17;79.51
73106;BME280;61559;50.476;15.588;2022-12-18T07:21:11;99336.89;;;-5.22;79.67
73106;BME280;61559;50.476;15.588;2022-12-18T07:23:42;99335.66;;;-5.23;79.67
73106;BME280;61559;50.476;15.588;2022-12-18T07:26:16;99341.70;;;-5.31;79.56
73106;BME280;61559;50.476;15.588;2022-12-18T07:28:48;99342.42;;;-5.41;79.72
73106;BME280;61559;50.476;15.588;2022-12-18T07:31:21;99347.48;;;-5.47;79.84
73106;BME280;61559;50.476;15.588;2022-12-18T07:33:52;99351.16;;;-5.50;80.09
73106;BME280;61559;50.476;15.588;2022-12-18T07:36:24;99354.86;;;-5.51;80.23
73106;BME280;61559;50.476;15.588;2022-12-18T07:38:54;99353.42;;;-5.52;80.38
73106;BME280;61559;50.476;15.588;2022-12-18T07:41:25;99356.40;;;-5.55;80.60
73106;BME280;61559;50.476;15.588;2022-12-18T07:43:56;99368.79;;;-5.55;80.67
73106;BME280;61559;50.476;15.588;2022-12-18T07:46:27;99373.75;;;-5.56;80.82
73106;BME280;61559;50.476;15.588;2022-12-18T07:48:58;99373.53;;;-5.59;81.02
73106;BME280;61559;50.476;15.588;2022-12-18T07:51:29;99371.12;;;-5.60;81.08
73106;BME280;61559;50.476;15.588;2022-12-18T07:54:02;99381.22;;;-5.56;81.30
73106;BME280;61559;50.476;15.588;2022-12-18T07:56:32;99385.92;;;-5.53;81.30
73106;BME280;61559;50.476;15.588;2022-12-18T07:59:06;99390.73;;;-5.49;81.21
73106;BME280;61559;50.476;15.588;2022-12-18T08:01:37;99392.84;;;-5.45;81.21
73106;BME280;61559;50.476;15.588;2022-12-18T08:04:09;99393.71;;;-5.42;81.01
73106;BME280;61559;50.476;15.588;2022-12-18T08:06:40;99386.84;;;-5.42;80.92
73106;BME280;61559;50.476;15.588;2022-12-18T08:09:17;99391.48;;;-5.40;80.81
73106;BME280;61559;50.476;15.588;2022-12-18T08:11:47;99401.49;;;-5.40;81.11
73106;BME280;61559;50.476;15.588;2022-12-18T08:14:18;99399.36;;;-5.39;81.05
73106;BME280;61559;50.476;15.588;2022-12-18T08:16:50;99401.09;;;-5.36;81.07
73106;BME280;61559;50.476;15.588;2022-12-18T08:19:21;99403.44;;;-5.34;80.95
73106;BME280;61559;50.476;15.588;2022-12-18T08:21:52;99401.80;;;-5.33;80.80
73106;BME280;61559;50.476;15.588;2022-12-18T08:24:25;99406.10;;;-5.29;80.96
73106;BME280;61559;50.476;15.588;2022-12-18T08:26:56;99409.81;;;-5.27;80.57
73106;BME280;61559;50.476;15.588;2022-12-18T08:29:48;99407.86;;;-5.32;80.57
73106;BME280;61559;50.476;15.588;2022-12-18T08:32:19;99409.88;;;-5.35;80.44
73106;BME280;61559;50.476;15.588;2022-12-18T08:34:50;99405.92;;;-5.35;80.44
73106;BME280;61559;50.476;15.588;2022-12-18T08:37:21;99407.42;;;-5.37;80.50
73106;BME280;61559;50.476;15.588;2022-12-18T08:39:52;99405.66;;;-5.43;80.40
73106;BME280;61559;50.476;15.588;2022-12-18T08:42:23;99405.33;;;-5.47;80.81
73106;BME280;61559;50.476;15.588;2022-12-18T08:45:12;99404.21;;;-5.53;80.92
73106;BME280;61559;50.476;15.588;2022-12-18T08:47:43;99410.48;;;-5.52;80.93
73106;BME280;61559;50.476;15.588;2022-12-18T08:50:15;99413.60;;;-5.53;80.80
73106;BME280;61559;50.476;15.588;2022-12-18T08:52:47;99413.60;;;-5.53;81.16
73106;BME280;61559;50.476;15.588;2022-12-18T08:55:18;99415.86;;;-5.57;81.15
73106;BME280;61559;50.476;15.588;2022-12-18T08:57:50;99422.15;;;-5.63;81.35
73106;BME280;61559;50.476;15.588;2022-12-18T09:00:22;99420.20;;;-5.69;81.54
73106;BME280;61559;50.476;15.588;2022-12-18T09:02:54;99416.65;;;-5.72;81.57
73106;BME280;61559;50.476;15.588;2022-12-18T09:05:25;99412.08;;;-5.71;81.71
73106;BME280;61559;50.476;15.588;2022-12-18T09:07:56;99409.76;;;-5.67;81.59
73106;BME280;61559;50.476;15.588;2022-12-18T09:10:27;99411.95;;;-5.65;81.63
73106;BME280;61559;50.476;15.588;2022-12-18T09:12:59;99408.13;;;-5.64;81.53
73106;BME280;61559;50.476;15.588;2022-12-18T09:15:30;99406.79;;;-5.58;81.58
73106;BME280;61559;50.476;15.588;2022-12-18T09:18:01;99401.15;;;-5.51;81.52
73106;BME280;61559;50.476;15.588;2022-12-18T09:20:32;99399.42;;;-5.44;81.52
73106;BME280;61559;50.476;15.588;2022-12-18T09:23:03;99403.95;;;-5.41;81.41
73106;BME280;61559;50.476;15.588;2022-12-18T09:25:34;99400.14;;;-5.38;81.42
73106;BME280;61559;50.476;15.588;2022-12-18T09:28:10;99395.91;;;-5.33;81.20
73106;BME280;61559;50.476;15.588;2022-12-18T09:30:46;99393.58;;;-5.26;81.21
73106;BME280;61559;50.476;15.588;2022-12-18T09:33:18;99398.70;;;-5.24;80.81
73106;BME280;61559;50.476;15.588;2022-12-18T09:35:49;99399.86;;;-5.20;80.61
73106;BME280;61559;50.476;15.588;2022-12-18T09:38:20;99395.95;;;-5.15;80.76
73106;BME280;61559;50.476;15.588;2022-12-18T09:40:55;99398.51;;;-5.11;80.22
73106;BME280;61559;50.476;15.588;2022-12-18T09:43:33;99416.99;;;-5.08;79.94
73106;BME280;61559;50.476;15.588;2022-12-18T09:46:08;99426.66;;;-5.08;79.62
73106;BME280;61559;50.476;15.588;2022-12-18T09:48:44;99419.53;;;-5.07;79.46
73106;BME280;61559;50.476;15.588;2022-12-18T09:51:19;99412.23;;;-5.12;79.34
73106;BME280;61559;50.476;15.588;2022-12-18T09:53:55;99408.23;;;-5.16;79.35
73106;BME280;61559;50.476;15.588;2022-12-18T09:56:31;99404.09;;;-5.15;79.60
73106;BME280;61559;50.476;15.588;2022-12-18T09:59:05;99399.70;;;-5.09;79.58
73106;BME280;61559;50.476;15.588;2022-12-18T10:01:37;99401.01;;;-5.01;79.78
73106;BME280;61559;50.476;15.588;2022-12-18T10:04:13;99402.19;;;-4.92;79.92
73106;BME280;61559;50.476;15.588;2022-12-18T10:06:49;99397.16;;;-4.90;79.29
73106;BME280;61559;50.476;15.588;2022-12-18T10:09:29;99401.70;;;-4.86;79.46
73106;BME280;61559;50.476;15.588;2022-12-18T10:12:10;99412.29;;;-4.82;79.20
73106;BME280;61559;50.476;15.588;2022-12-18T10:14:50;99424.82;;;-4.82;79.23
73106;BME280;61559;50.476;15.588;2022-12-18T10:17:28;99424.42;;;-4.79;79.26
73106;BME280;61559;50.476;15.588;2022-12-18T10:20:13;99429.11;;;-4.75;79.28
73106;BME280;61559;50.476;15.588;2022-12-18T10:22:52;99439.21;;;-4.69;79.12
73106;BME280;61559;50.476;15.588;2022-12-18T10:25:31;99447.42;;;-4.71;78.53
73106;BME280;61559;50.476;15.588;2022-12-18T10:28:13;99447.21;;;-4.83;78.48
73106;BME280;61559;50.476;15.588;2022-12-18T10:30:45;99453.28;;;-4.93;78.64
73106;BME280;61559;50.476;15.588;2022-12-18T10:33:18;99452.09;;;-4.95;78.80
73106;BME280;61559;50.476;15.588;2022-12-18T10:35:51;99454.27;;;-4.96;78.67
73106;BME280;61559;50.476;15.588;2022-12-18T10:38:25;99454.58;;;-4.93;78.76
73106;BME280;61559;50.476;15.588;2022-12-18T10:40:58;99455.86;;;-4.91;78.44
73106;BME280;61559;50.476;15.588;2022-12-18T10:43:31;99456.08;;;-4.89;78.56
73106;BME280;61559;50.476;15.588;2022-12-18T10:46:14;99451.41;;;-4.84;78.74
73106;BME280;61559;50.476;15.588;2022-12-18T10:48:54;99450.62;;;-4.74;78.71
73106;BME280;61559;50.476;15.588;2022-12-18T10:51:28;99442.05;;;-4.73;78.05
73106;BME280;61559;50.476;15.588;2022-12-18T10:54:02;99439.31;;;-4.74;78.32
73106;BME280;61559;50.476;15.588;2022-12-18T10:56:36;99439.52;;;-4.76;78.21
73106;BME280;61559;50.476;15.588;2022-12-18T10:59:09;99439.29;;;-4.76;78.30
73106;BME280;61559;50.476;15.588;2022-12-18T11:04:08;99426.77;;;-4.67;78.40
73106;BME280;61559;50.476;15.588;2022-12-18T11:06:55;99423.34;;;-4.67;78.20
73106;BME280;61559;50.476;15.588;2022-12-18T11:09:28;99420.79;;;-4.65;78.14
73106;BME280;61559;50.476;15.588;2022-12-18T11:12:03;99413.14;;;-4.62;78.16
73106;BME280;61559;50.476;15.588;2022-12-18T11:14:45;99406.52;;;-4.65;77.48
73106;BME280;61559;50.476;15.588;2022-12-18T11:17:24;99409.78;;;-4.78;77.37
73106;BME280;61559;50.476;15.588;2022-12-18T11:20:00;99413.23;;;-4.88;77.93
73106;BME280;61559;50.476;15.588;2022-12-18T11:22:33;99409.04;;;-4.98;77.83
73106;BME280;61559;50.476;15.588;2022-12-18T11:25:16;99405.79;;;-5.10;78.07
73106;BME280;61559;50.476;15.588;2022-12-18T11:28:02;99409.67;;;-5.18;78.10
73106;BME280;61559;50.476;15.588;2022-12-18T11:30:35;99407.52;;;-5.21;78.26
73106;BME280;61559;50.476;15.588;2022-12-18T11:33:08;99399.05;;;-5.18;78.72
73106;BME280;61559;50.476;15.588;2022-12-18T11:35:47;99394.73;;;-5.12;78.66
73106;BME280;61559;50.476;15.588;2022-12-18T11:38:22;99395.73;;;-5.04;78.62
73106;BME280;61559;50.476;15.588;2022-12-18T11:40:58;99387.59;;;-4.98;78.63
73106;BME280;61559;50.476;15.588;2022-12-18T11:43:35;99384.26;;;-4.97;78.36
73106;BME280;61559;50.476;15.588;2022-12-18T11:46:14;99380.61;;;-4.95;78.43
73106;BME280;61559;50.476;15.588;2022-12-18T11:48:52;99377.56;;;-4.92;78.24
73106;BME280;61559;50.476;15.588;2022-12-18T11:51:35;99374.83;;;-4.93;77.83
73106;BME280;61559;50.476;15.588;2022-12-18T11:54:14;99371.36;;;-5.01;78.04
73106;BME280;61559;50.476;15.588;2022-12-18T11:56:48;99374.66;;;-5.01;78.17
73106;BME280;61559;50.476;15.588;2022-12-18T11:59:28;99372.73;;;-5.00;78.19
73106;BME280;61559;50.476;15.588;2022-12-18T12:02:15;99371.80;;;-5.01;78.26
73106;BME280;61559;50.476;15.588;2022-12-18T12:05:05;99374.06;;;-5.01;78.32
73106;BME280;61559;50.476;15.588;2022-12-18T12:07:47;99376.33;;;-5.01;78.31
73106;BME280;61559;50.476;15.588;2022-12-18T12:10:38;99380.71;;;-4.96;78.46
73106;BME280;61559;50.476;15.588;2022-12-18T12:13:26;99379.35;;;-4.89;78.37
73106;BME280;61559;50.476;15.588;2022-12-18T12:16:06;99375.81;;;-4.83;78.18
73106;BME280;61559;50.476;15.588;2022-12-18T12:18:53;99374.67;;;-4.79;78.25
73106;BME280;61559;50.476;15.588;2022-12-18T12:21:34;99379.16;;;-4.78;77.97
73106;BME280;61559;50.476;15.588;2022-12-18T12:24:14;99379.38;;;-4.76;78.04
73106;BME280;61559;50.476;15.588;2022-12-18T12:26:55;99380.91;;;-4.73;77.98
73106;BME280;61559;50.476;15.588;2022-12-18T12:29:37;99381.70;;;-4.77;77.39
73106;BME280;61559;50.476;15.588;2022-12-18T12:32:25;99373.19;;;-4.88;77.24
73106;BME280;61559;50.476;15.588;2022-12-18T12:35:11;99374.16;;;-5.01;77.55
73106;BME280;61559;50.476;15.588;2022-12-18T12:37:49;99372.13;;;-5.04;77.88
73106;BME280;61559;50.476;15.588;2022-12-18T12:40:26;99367.85;;;-5.06;78.01
73106;BME280;61559;50.476;15.588;2022-12-18T12:43:24;99362.08;;;-5.09;78.13
73106;BME280;61559;50.476;15.588;2022-12-18T12:46:00;99351.30;;;-5.16;78.46
73106;BME280;61559;50.476;15.588;2022-12-18T12:48:40;99353.21;;;-5.18;78.62
73106;BME280;61559;50.476;15.588;2022-12-18T12:51:14;99356.83;;;-5.23;78.79
73106;BME280;61559;50.476;15.588;2022-12-18T12:53:47;99362.29;;;-5.31;79.28
73106;BME280;61559;50.476;15.588;2022-12-18T12:56:20;99375.13;;;-5.41;79.55
73106;BME280;61559;50.476;15.588;2022-12-18T12:58:59;99372.73;;;-5.48;79.56
73106;BME280;61559;50.476;15.588;2022-12-18T13:01:39;99375.70;;;-5.54;79.92
73106;BME280;61559;50.476;15.588;2022-12-18T13:04:21;99380.58;;;-5.59;80.21
73106;BME280;61559;50.476;15.588;2022-12-18T13:07:01;99378.51;;;-5.67;80.40
73106;BME280;61559;50.476;15.588;2022-12-18T13:09:36;99381.83;;;-5.75;80.87
73106;BME280;61559;50.476;15.588;2022-12-18T13:12:27;99384.36;;;-5.80;80.89
73106;BME280;61559;50.476;15.588;2022-12-18T13:15:23;99388.25;;;-5.82;81.01
73106;BME280;61559;50.476;15.588;2022-12-18T13:18:18;99393.85;;;-5.86;81.58
73106;BME280;61559;50.476;15.588;2022-12-18T13:20:53;99398.44;;;-5.88;81.44
73106;BME280;61559;50.476;15.588;2022-12-18T13:23:36;99398.48;;;-5.88;81.38
73106;BME280;61559;50.476;15.588;2022-12-18T13:26:40;99404.53;;;-5.91;81.38
73106;BME280;61559;50.476;15.588;2022-12-18T13:29:11;99405.23;;;-5.92;81.48
73106;BME280;61559;50.476;15.588;2022-12-18T13:32:02;99405.56;;;-5.92;81.59